Athens, Georgia
Current Conditions -  °F | °C
As of 4:51 PM on Thursday 20 Nov 2014 (Local Time) from KAHN Reporting Station
Clear Clear  
Wind Chill: 57°   Ceiling: Unl
Heat Index: 57°   Visibility: 10mi
Dew Point: 28°   Wind: 6mph
Humidity: 33%   Direction: 280°W
Pressure: 30.15"   Gusts: NA
Location:  33.96°N, 83.37°W
Report Text: KAHN 202151Z AUTO 28005KT 10SM CLR 14/M02 A3015 RMK AO2 SLP213 T01391022 TSNO $
Loading
Personal Weather Stations






























Interactive Weather Map New forecast layout! Learn more

10-Day Weather Forecast

Advertisements
Track Severe Weather on mobile